Selfridge Angb Airport Mount Clemens US
ICAO: KMTC
IATA: MTC
Category: Medium
Scheduled Services: No

Elevation: 580 ft
TransAlt. 18000 ft.

Airport Communications:
927 ARW OPS:31.42
APP:119.6
ATIS:125.325
CLNC DEL:119
DEP:119.6
GND:128.3
USCG DETROIT AIR:38.18
WING COMD POST:148.525
PMSV/METRO:34.25
PTD:134.85
TWR:120.15

KMTC Zoom In..

Runways:

(A) RW 01 length 9000 ft width 150 ft
ILS 110.10 / hdg 8

(B) RW 19 length 9000 ft width 150 ft
ILS 110.10 / hdg 188

Location; KMTC
Day. 29 / Time. 23.55 Zulu
* Altimeter: 29.71
* Temperature: 10° c. 50°f.
* Wind from: 230° Speed 18 kn with Gusts up to 24 kn.
Dewpoint: 05° c.
Visibility: 12 Statute Miles.
Clouds: Overcast 3600 ft.

KMTC 292355Z 23018G24KT 12SM OVC036 10/05 A2971 RMK AO2A PK WND 26032/32 SLP067 60003 T01010049 10150 20097 52027 $


Wind From 230°
Speed 18 kn.

 
 
jpsmedia worldairports.se 2020   terms of use